sensor_id;sensor_type;location;lat;lon;timestamp;pressure;altitude;pressure_sealevel;temperature;humidity
76627;BME280;65519;53.230;10.390;2023-08-12T00:00:56;101408.34;;;20.60;68.08
76627;BME280;65519;53.230;10.390;2023-08-12T00:03:21;101411.63;;;20.62;68.51
76627;BME280;65519;53.230;10.390;2023-08-12T00:05:47;101402.50;;;20.62;67.77
76627;BME280;65519;53.230;10.390;2023-08-12T00:08:12;101405.94;;;20.67;67.61
76627;BME280;65519;53.230;10.390;2023-08-12T00:10:38;101406.53;;;20.56;67.65
76627;BME280;65519;53.230;10.390;2023-08-12T00:13:03;101408.03;;;20.62;67.42
76627;BME280;65519;53.230;10.390;2023-08-12T00:15:29;101402.50;;;20.62;67.71
76627;BME280;65519;53.230;10.390;2023-08-12T00:17:54;101392.78;;;20.73;67.15
76627;BME280;65519;53.230;10.390;2023-08-12T00:20:20;101386.06;;;20.65;67.14
76627;BME280;65519;53.230;10.390;2023-08-12T00:22:45;101397.75;;;20.54;67.94
76627;BME280;65519;53.230;10.390;2023-08-12T00:25:11;101392.41;;;20.66;67.54
76627;BME280;65519;53.230;10.390;2023-08-12T00:27:37;101396.78;;;20.58;67.79
76627;BME280;65519;53.230;10.390;2023-08-12T00:30:03;101383.72;;;20.50;67.87
76627;BME280;65519;53.230;10.390;2023-08-12T00:32:29;101383.66;;;20.42;68.09
76627;BME280;65519;53.230;10.390;2023-08-12T00:34:56;101379.25;;;20.40;68.63
76627;BME280;65519;53.230;10.390;2023-08-12T00:37:22;101383.78;;;20.36;68.82
76627;BME280;65519;53.230;10.390;2023-08-12T00:39:47;101376.00;;;20.38;68.41
76627;BME280;65519;53.230;10.390;2023-08-12T00:42:13;101381.25;;;20.49;67.97
76627;BME280;65519;53.230;10.390;2023-08-12T00:44:38;101369.22;;;20.53;67.84
76627;BME280;65519;53.230;10.390;2023-08-12T00:47:04;101374.53;;;20.41;68.06
76627;BME280;65519;53.230;10.390;2023-08-12T00:49:31;101376.00;;;20.38;68.26
76627;BME280;65519;53.230;10.390;2023-08-12T00:51:56;101374.34;;;20.37;68.54
76627;BME280;65519;53.230;10.390;2023-08-12T00:54:23;101369.63;;;20.38;68.14
76627;BME280;65519;53.230;10.390;2023-08-12T00:56:49;101356.00;;;20.19;69.22
76627;BME280;65519;53.230;10.390;2023-08-12T00:59:17;101364.97;;;20.25;68.73
76627;BME280;65519;53.230;10.390;2023-08-12T01:01:44;101366.06;;;20.15;68.92
76627;BME280;65519;53.230;10.390;2023-08-12T01:04:10;101361.53;;;20.19;69.02
76627;BME280;65519;53.230;10.390;2023-08-12T01:06:36;101368.72;;;20.20;69.02
76627;BME280;65519;53.230;10.390;2023-08-12T01:09:03;101365.78;;;20.25;69.00
76627;BME280;65519;53.230;10.390;2023-08-12T01:11:49;101360.41;;;20.20;69.16
76627;BME280;65519;53.230;10.390;2023-08-12T01:14:27;101366.25;;;20.19;69.01
76627;BME280;65519;53.230;10.390;2023-08-12T01:16:58;101363.22;;;20.29;69.01
76627;BME280;65519;53.230;10.390;2023-08-12T01:19:36;101362.50;;;20.23;68.69
76627;BME280;65519;53.230;10.390;2023-08-12T01:22:03;101364.00;;;20.21;68.90
76627;BME280;65519;53.230;10.390;2023-08-12T01:24:37;101362.66;;;20.18;68.87
76627;BME280;65519;53.230;10.390;2023-08-12T01:27:04;101361.25;;;20.29;68.70
76627;BME280;65519;53.230;10.390;2023-08-12T01:29:32;101354.56;;;20.22;68.91
76627;BME280;65519;53.230;10.390;2023-08-12T01:37:24;101349.72;;;20.05;69.66
76627;BME280;65519;53.230;10.390;2023-08-12T01:39:52;101346.94;;;20.05;69.93
76627;BME280;65519;53.230;10.390;2023-08-12T01:42:19;101348.41;;;19.80;70.61
76627;BME280;65519;53.230;10.390;2023-08-12T01:44:45;101349.63;;;19.88;70.49
76627;BME280;65519;53.230;10.390;2023-08-12T01:47:11;101336.72;;;19.83;70.36
76627;BME280;65519;53.230;10.390;2023-08-12T01:49:37;101348.56;;;19.75;70.99
76627;BME280;65519;53.230;10.390;2023-08-12T01:52:03;101339.06;;;19.67;71.31
76627;BME280;65519;53.230;10.390;2023-08-12T01:54:28;101330.78;;;19.67;71.39
76627;BME280;65519;53.230;10.390;2023-08-12T01:57:02;101335.03;;;19.74;71.54
76627;BME280;65519;53.230;10.390;2023-08-12T01:59:37;101324.84;;;19.83;70.80
76627;BME280;65519;53.230;10.390;2023-08-12T02:02:03;101324.91;;;19.69;71.15
76627;BME280;65519;53.230;10.390;2023-08-12T02:04:29;101314.91;;;19.82;70.52
76627;BME280;65519;53.230;10.390;2023-08-12T02:06:54;101321.25;;;19.82;70.47
76627;BME280;65519;53.230;10.390;2023-08-12T02:09:20;101316.72;;;19.86;70.22
76627;BME280;65519;53.230;10.390;2023-08-12T02:11:46;101323.59;;;19.89;70.12
76627;BME280;65519;53.230;10.390;2023-08-12T02:14:11;101317.25;;;19.88;70.14
76627;BME280;65519;53.230;10.390;2023-08-12T02:16:37;101311.56;;;19.71;70.89
76627;BME280;65519;53.230;10.390;2023-08-12T02:19:03;101304.56;;;19.65;71.15
76627;BME280;65519;53.230;10.390;2023-08-12T02:21:28;101301.78;;;19.65;71.07
76627;BME280;65519;53.230;10.390;2023-08-12T02:23:54;101301.47;;;19.66;71.40
76627;BME280;65519;53.230;10.390;2023-08-12T02:26:20;101299.34;;;19.63;71.22
76627;BME280;65519;53.230;10.390;2023-08-12T02:28:47;101298.47;;;19.54;71.35
76627;BME280;65519;53.230;10.390;2023-08-12T02:31:15;101303.16;;;19.54;71.38
76627;BME280;65519;53.230;10.390;2023-08-12T02:33:42;101296.81;;;19.53;71.45
76627;BME280;65519;53.230;10.390;2023-08-12T02:36:07;101294.88;;;19.54;71.45
76627;BME280;65519;53.230;10.390;2023-08-12T02:38:33;101281.66;;;19.51;71.43
76627;BME280;65519;53.230;10.390;2023-08-12T02:40:58;101278.91;;;19.51;71.68
76627;BME280;65519;53.230;10.390;2023-08-12T02:43:24;101285.63;;;19.58;71.14
76627;BME280;65519;53.230;10.390;2023-08-12T02:45:49;101288.22;;;19.55;71.55
76627;BME280;65519;53.230;10.390;2023-08-12T02:48:15;101285.28;;;19.38;72.16
76627;BME280;65519;53.230;10.390;2023-08-12T02:50:40;101273.91;;;19.39;72.30
76627;BME280;65519;53.230;10.390;2023-08-12T02:53:06;101281.34;;;19.52;71.75
76627;BME280;65519;53.230;10.390;2023-08-12T02:55:32;101271.13;;;19.53;71.97
76627;BME280;65519;53.230;10.390;2023-08-12T02:57:58;101266.50;;;19.48;71.98
76627;BME280;65519;53.230;10.390;2023-08-12T03:00:24;101275.31;;;19.50;71.68
76627;BME280;65519;53.230;10.390;2023-08-12T03:02:49;101269.91;;;19.45;71.94
76627;BME280;65519;53.230;10.390;2023-08-12T03:05:15;101264.06;;;19.47;72.07
76627;BME280;65519;53.230;10.390;2023-08-12T03:07:41;101261.19;;;19.52;71.74
76627;BME280;65519;53.230;10.390;2023-08-12T03:10:07;101256.81;;;19.37;72.15
76627;BME280;65519;53.230;10.390;2023-08-12T03:12:33;101260.34;;;19.29;72.90
76627;BME280;65519;53.230;10.390;2023-08-12T03:14:58;101260.94;;;19.26;72.92
76627;BME280;65519;53.230;10.390;2023-08-12T03:17:24;101263.84;;;19.21;72.71
76627;BME280;65519;53.230;10.390;2023-08-12T03:19:51;101263.97;;;19.16;73.30
76627;BME280;65519;53.230;10.390;2023-08-12T03:22:20;101248.91;;;19.22;73.34
76627;BME280;65519;53.230;10.390;2023-08-12T03:24:48;101235.59;;;19.24;73.17
76627;BME280;65519;53.230;10.390;2023-08-12T03:27:13;101253.97;;;19.28;73.00
76627;BME280;65519;53.230;10.390;2023-08-12T03:29:40;101253.03;;;19.11;73.65
76627;BME280;65519;53.230;10.390;2023-08-12T03:32:06;101235.19;;;19.17;73.13
76627;BME280;65519;53.230;10.390;2023-08-12T03:34:31;101253.25;;;19.14;73.44
76627;BME280;65519;53.230;10.390;2023-08-12T03:36:58;101252.22;;;19.10;73.51
76627;BME280;65519;53.230;10.390;2023-08-12T03:39:23;101241.03;;;19.15;73.36
76627;BME280;65519;53.230;10.390;2023-08-12T03:41:50;101231.06;;;19.28;72.33
76627;BME280;65519;53.230;10.390;2023-08-12T03:44:16;101229.81;;;19.34;72.76
76627;BME280;65519;53.230;10.390;2023-08-12T03:46:42;101234.78;;;19.23;73.15
76627;BME280;65519;53.230;10.390;2023-08-12T03:49:08;101236.31;;;19.16;73.36
76627;BME280;65519;53.230;10.390;2023-08-12T03:51:34;101234.47;;;19.25;73.40
76627;BME280;65519;53.230;10.390;2023-08-12T03:54:00;101230.50;;;19.17;73.20
76627;BME280;65519;53.230;10.390;2023-08-12T03:56:26;101231.84;;;19.06;74.14
76627;BME280;65519;53.230;10.390;2023-08-12T03:58:52;101229.91;;;19.07;73.48
76627;BME280;65519;53.230;10.390;2023-08-12T04:01:17;101221.44;;;19.03;73.91
76627;BME280;65519;53.230;10.390;2023-08-12T04:03:43;101232.75;;;19.15;73.54
76627;BME280;65519;53.230;10.390;2023-08-12T04:06:08;101232.00;;;19.01;73.81
76627;BME280;65519;53.230;10.390;2023-08-12T04:08:33;101236.94;;;18.90;75.10
76627;BME280;65519;53.230;10.390;2023-08-12T04:11:00;101250.22;;;19.02;74.69
76627;BME280;65519;53.230;10.390;2023-08-12T04:13:25;101274.38;;;18.96;74.87
76627;BME280;65519;53.230;10.390;2023-08-12T04:15:51;101256.38;;;18.85;75.50
76627;BME280;65519;53.230;10.390;2023-08-12T04:18:18;101240.53;;;18.91;75.16
76627;BME280;65519;53.230;10.390;2023-08-12T04:20:45;101249.69;;;19.00;74.97
76627;BME280;65519;53.230;10.390;2023-08-12T04:23:12;101252.03;;;19.07;74.73
76627;BME280;65519;53.230;10.390;2023-08-12T04:25:38;101244.28;;;18.95;74.99
76627;BME280;65519;53.230;10.390;2023-08-12T04:28:03;101286.94;;;19.03;75.20
76627;BME280;65519;53.230;10.390;2023-08-12T04:30:31;101308.78;;;18.90;76.33
76627;BME280;65519;53.230;10.390;2023-08-12T04:32:57;101281.91;;;19.05;75.55
76627;BME280;65519;53.230;10.390;2023-08-12T04:35:25;101283.47;;;18.97;76.08
76627;BME280;65519;53.230;10.390;2023-08-12T04:37:50;101271.06;;;19.08;75.37
76627;BME280;65519;53.230;10.390;2023-08-12T04:40:17;101244.69;;;19.02;76.28
76627;BME280;65519;53.230;10.390;2023-08-12T04:42:42;101240.84;;;19.12;76.35
76627;BME280;65519;53.230;10.390;2023-08-12T04:45:09;101241.53;;;19.17;76.37
76627;BME280;65519;53.230;10.390;2023-08-12T04:47:34;101236.47;;;19.11;77.53
76627;BME280;65519;53.230;10.390;2023-08-12T04:50:00;101249.91;;;19.26;76.33
76627;BME280;65519;53.230;10.390;2023-08-12T04:52:26;101226.34;;;19.28;75.49
76627;BME280;65519;53.230;10.390;2023-08-12T04:54:55;101215.03;;;19.39;74.96
76627;BME280;65519;53.230;10.390;2023-08-12T04:57:22;101211.75;;;19.37;75.72
76627;BME280;65519;53.230;10.390;2023-08-12T04:59:49;101223.63;;;19.37;75.07
76627;BME280;65519;53.230;10.390;2023-08-12T05:02:15;101214.66;;;19.31;75.31
76627;BME280;65519;53.230;10.390;2023-08-12T05:04:41;101214.88;;;19.35;75.27
76627;BME280;65519;53.230;10.390;2023-08-12T05:07:06;101208.06;;;19.41;75.38
76627;BME280;65519;53.230;10.390;2023-08-12T05:09:32;101217.28;;;19.37;75.22
76627;BME280;65519;53.230;10.390;2023-08-12T05:11:57;101227.16;;;19.29;75.54
76627;BME280;65519;53.230;10.390;2023-08-12T05:14:23;101227.88;;;19.12;76.31
76627;BME280;65519;53.230;10.390;2023-08-12T05:16:48;101226.84;;;19.08;76.46
76627;BME280;65519;53.230;10.390;2023-08-12T05:19:14;101227.66;;;19.09;77.06
76627;BME280;65519;53.230;10.390;2023-08-12T05:21:40;101232.56;;;19.12;76.65
76627;BME280;65519;53.230;10.390;2023-08-12T05:24:06;101242.50;;;19.13;76.91
76627;BME280;65519;53.230;10.390;2023-08-12T05:26:33;101235.50;;;19.15;76.86
76627;BME280;65519;53.230;10.390;2023-08-12T05:28:58;101245.88;;;19.10;76.56
76627;BME280;65519;53.230;10.390;2023-08-12T05:31:24;101249.84;;;19.17;76.62
76627;BME280;65519;53.230;10.390;2023-08-12T05:33:50;101256.19;;;19.18;76.67
76627;BME280;65519;53.230;10.390;2023-08-12T05:36:16;101254.03;;;19.15;77.33
76627;BME280;65519;53.230;10.390;2023-08-12T05:38:41;101258.03;;;19.22;76.92
76627;BME280;65519;53.230;10.390;2023-08-12T05:41:07;101262.00;;;19.16;77.44
76627;BME280;65519;53.230;10.390;2023-08-12T05:43:33;101262.84;;;19.17;77.90
76627;BME280;65519;53.230;10.390;2023-08-12T05:45:59;101258.06;;;19.09;77.98
76627;BME280;65519;53.230;10.390;2023-08-12T05:48:24;101259.50;;;19.06;78.02
76627;BME280;65519;53.230;10.390;2023-08-12T05:50:50;101248.97;;;19.30;76.71
76627;BME280;65519;53.230;10.390;2023-08-12T05:53:15;101247.16;;;19.48;76.27
76627;BME280;65519;53.230;10.390;2023-08-12T05:55:41;101241.63;;;19.48;76.64
76627;BME280;65519;53.230;10.390;2023-08-12T05:58:07;101247.56;;;19.55;75.96
76627;BME280;65519;53.230;10.390;2023-08-12T06:00:33;101258.78;;;19.59;75.63
76627;BME280;65519;53.230;10.390;2023-08-12T06:02:58;101262.25;;;19.64;76.20
76627;BME280;65519;53.230;10.390;2023-08-12T06:05:24;101267.97;;;19.68;76.89
76627;BME280;65519;53.230;10.390;2023-08-12T06:07:49;101253.72;;;19.52;75.51
76627;BME280;65519;53.230;10.390;2023-08-12T06:10:15;101254.00;;;19.73;74.89
76627;BME280;65519;53.230;10.390;2023-08-12T06:12:40;101253.50;;;19.71;75.28
76627;BME280;65519;53.230;10.390;2023-08-12T06:15:06;101247.00;;;19.76;75.03
76627;BME280;65519;53.230;10.390;2023-08-12T06:17:31;101249.34;;;19.91;75.08
76627;BME280;65519;53.230;10.390;2023-08-12T06:19:57;101248.69;;;19.85;75.14
76627;BME280;65519;53.230;10.390;2023-08-12T06:22:22;101244.63;;;19.91;75.25
76627;BME280;65519;53.230;10.390;2023-08-12T06:24:48;101239.97;;;20.00;75.67
76627;BME280;65519;53.230;10.390;2023-08-12T06:27:13;101245.88;;;20.08;75.42
76627;BME280;65519;53.230;10.390;2023-08-12T06:29:39;101246.38;;;20.10;75.36
76627;BME280;65519;53.230;10.390;2023-08-12T06:32:04;101233.78;;;20.03;76.13
76627;BME280;65519;53.230;10.390;2023-08-12T06:34:30;101237.75;;;20.11;76.03
76627;BME280;65519;53.230;10.390;2023-08-12T06:36:55;101231.72;;;20.09;76.05
76627;BME280;65519;53.230;10.390;2023-08-12T06:39:21;101240.03;;;20.09;76.55
76627;BME280;65519;53.230;10.390;2023-08-12T06:41:46;101236.13;;;20.10;76.26
76627;BME280;65519;53.230;10.390;2023-08-12T06:44:11;101243.41;;;20.06;77.33
76627;BME280;65519;53.230;10.390;2023-08-12T06:46:37;101246.19;;;20.06;76.77
76627;BME280;65519;53.230;10.390;2023-08-12T06:49:02;101231.06;;;20.12;77.00
76627;BME280;65519;53.230;10.390;2023-08-12T06:51:28;101229.00;;;20.26;76.34
76627;BME280;65519;53.230;10.390;2023-08-12T06:53:53;101235.03;;;20.28;75.88
76627;BME280;65519;53.230;10.390;2023-08-12T06:56:19;101230.81;;;20.31;76.01
76627;BME280;65519;53.230;10.390;2023-08-12T06:58:44;101235.66;;;20.25;76.32
76627;BME280;65519;53.230;10.390;2023-08-12T07:01:10;101228.19;;;20.26;76.58
76627;BME280;65519;53.230;10.390;2023-08-12T07:03:35;101222.06;;;20.37;76.80
76627;BME280;65519;53.230;10.390;2023-08-12T07:06:01;101218.34;;;20.51;76.46
76627;BME280;65519;53.230;10.390;2023-08-12T07:08:26;101230.06;;;20.56;75.46
76627;BME280;65519;53.230;10.390;2023-08-12T07:10:52;101221.75;;;20.56;75.73
76627;BME280;65519;53.230;10.390;2023-08-12T07:13:18;101221.44;;;20.66;75.28
76627;BME280;65519;53.230;10.390;2023-08-12T07:15:43;101220.97;;;20.73;74.77
76627;BME280;65519;53.230;10.390;2023-08-12T07:18:08;101213.63;;;20.77;74.02
76627;BME280;65519;53.230;10.390;2023-08-12T07:20:34;101215.31;;;20.87;74.11
76627;BME280;65519;53.230;10.390;2023-08-12T07:23:00;101224.06;;;20.89;73.95
76627;BME280;65519;53.230;10.390;2023-08-12T07:25:25;101225.06;;;20.84;74.08
76627;BME280;65519;53.230;10.390;2023-08-12T07:27:50;101223.75;;;20.82;74.65
76627;BME280;65519;53.230;10.390;2023-08-12T07:30:16;101222.78;;;20.86;74.83
76627;BME280;65519;53.230;10.390;2023-08-12T07:32:42;101222.75;;;20.77;74.93
76627;BME280;65519;53.230;10.390;2023-08-12T07:35:08;101215.44;;;20.90;73.79
76627;BME280;65519;53.230;10.390;2023-08-12T07:37:33;101209.41;;;20.88;74.13
76627;BME280;65519;53.230;10.390;2023-08-12T07:39:59;101211.06;;;20.98;74.09
76627;BME280;65519;53.230;10.390;2023-08-12T07:42:24;101208.44;;;21.01;73.99
76627;BME280;65519;53.230;10.390;2023-08-12T07:44:50;101196.50;;;21.09;74.66
76627;BME280;65519;53.230;10.390;2023-08-12T07:47:15;101198.81;;;21.07;73.99
76627;BME280;65519;53.230;10.390;2023-08-12T07:49:41;101190.00;;;21.05;74.24
76627;BME280;65519;53.230;10.390;2023-08-12T07:52:07;101192.16;;;21.08;73.84
76627;BME280;65519;53.230;10.390;2023-08-12T07:54:32;101192.47;;;21.07;73.95
76627;BME280;65519;53.230;10.390;2023-08-12T07:56:58;101205.34;;;21.20;74.42
76627;BME280;65519;53.230;10.390;2023-08-12T07:59:23;101199.00;;;21.20;74.22
76627;BME280;65519;53.230;10.390;2023-08-12T08:01:49;101199.97;;;21.24;75.24
76627;BME280;65519;53.230;10.390;2023-08-12T08:04:14;101193.78;;;21.18;74.55
76627;BME280;65519;53.230;10.390;2023-08-12T08:06:40;101195.56;;;21.23;77.41
76627;BME280;65519;53.230;10.390;2023-08-12T08:09:05;101200.47;;;21.26;75.46
76627;BME280;65519;53.230;10.390;2023-08-12T08:11:31;101199.31;;;21.27;76.32
76627;BME280;65519;53.230;10.390;2023-08-12T08:13:58;101188.03;;;21.32;75.76
76627;BME280;65519;53.230;10.390;2023-08-12T08:16:23;101195.06;;;21.38;75.01
76627;BME280;65519;53.230;10.390;2023-08-12T08:18:49;101187.56;;;21.38;75.61
76627;BME280;65519;53.230;10.390;2023-08-12T08:21:15;101183.31;;;21.41;75.56
76627;BME280;65519;53.230;10.390;2023-08-12T08:23:41;101180.19;;;21.42;75.16
76627;BME280;65519;53.230;10.390;2023-08-12T08:26:07;101187.38;;;21.35;76.01
76627;BME280;65519;53.230;10.390;2023-08-12T08:28:32;101180.22;;;21.34;77.56
76627;BME280;65519;53.230;10.390;2023-08-12T08:30:58;101191.94;;;21.48;76.43
76627;BME280;65519;53.230;10.390;2023-08-12T08:33:25;101188.72;;;21.29;75.16
76627;BME280;65519;53.230;10.390;2023-08-12T08:35:50;101189.53;;;21.21;75.07
76627;BME280;65519;53.230;10.390;2023-08-12T08:38:16;101189.66;;;21.33;75.67
76627;BME280;65519;53.230;10.390;2023-08-12T08:40:42;101185.41;;;21.44;76.14
76627;BME280;65519;53.230;10.390;2023-08-12T08:43:08;101189.78;;;21.54;75.11
76627;BME280;65519;53.230;10.390;2023-08-12T08:45:34;101198.91;;;21.63;74.81
76627;BME280;65519;53.230;10.390;2023-08-12T08:48:01;101190.06;;;21.69;75.61
76627;BME280;65519;53.230;10.390;2023-08-12T08:50:30;101190.03;;;21.78;75.28
76627;BME280;65519;53.230;10.390;2023-08-12T08:52:57;101178.44;;;21.84;75.64
76627;BME280;65519;53.230;10.390;2023-08-12T08:55:23;101179.38;;;21.89;75.47
76627;BME280;65519;53.230;10.390;2023-08-12T08:57:49;101179.09;;;21.81;74.21
76627;BME280;65519;53.230;10.390;2023-08-12T09:00:18;101175.94;;;22.00;74.46
76627;BME280;65519;53.230;10.390;2023-08-12T09:02:45;101177.84;;;22.08;75.49
76627;BME280;65519;53.230;10.390;2023-08-12T09:05:13;101177.34;;;22.15;74.88
76627;BME280;65519;53.230;10.390;2023-08-12T09:07:40;101178.75;;;22.21;75.69
76627;BME280;65519;53.230;10.390;2023-08-12T09:10:07;101180.22;;;22.18;75.06
76627;BME280;65519;53.230;10.390;2023-08-12T09:12:33;101181.75;;;22.16;74.32
76627;BME280;65519;53.230;10.390;2023-08-12T09:14:58;101181.25;;;22.14;73.71
76627;BME280;65519;53.230;10.390;2023-08-12T09:17:24;101181.91;;;22.11;73.45
76627;BME280;65519;53.230;10.390;2023-08-12T09:19:50;101174.00;;;22.21;72.52
76627;BME280;65519;53.230;10.390;2023-08-12T09:22:17;101181.81;;;22.28;72.21
76627;BME280;65519;53.230;10.390;2023-08-12T09:24:43;101186.41;;;22.24;72.82
76627;BME280;65519;53.230;10.390;2023-08-12T09:27:08;101184.88;;;22.35;74.49
76627;BME280;65519;53.230;10.390;2023-08-12T09:29:34;101176.56;;;22.35;73.92
76627;BME280;65519;53.230;10.390;2023-08-12T09:32:18;101173.03;;;22.47;73.05
76627;BME280;65519;53.230;10.390;2023-08-12T09:37:17;101164.16;;;22.53;72.61
76627;BME280;65519;53.230;10.390;2023-08-12T09:39:43;101163.16;;;22.58;72.25
76627;BME280;65519;53.230;10.390;2023-08-12T09:42:09;101162.59;;;22.65;72.52
76627;BME280;65519;53.230;10.390;2023-08-12T09:44:36;101159.16;;;22.68;72.75
76627;BME280;65519;53.230;10.390;2023-08-12T09:47:01;101162.28;;;22.66;70.82
76627;BME280;65519;53.230;10.390;2023-08-12T09:49:28;101157.28;;;22.60;70.38
76627;BME280;65519;53.230;10.390;2023-08-12T09:51:55;101155.72;;;22.71;72.85
76627;BME280;65519;53.230;10.390;2023-08-12T09:54:21;101153.69;;;22.80;72.67
76627;BME280;65519;53.230;10.390;2023-08-12T09:56:48;101141.81;;;22.91;73.00
76627;BME280;65519;53.230;10.390;2023-08-12T09:59:20;101140.78;;;22.96;74.37
76627;BME280;65519;53.230;10.390;2023-08-12T10:01:49;101138.34;;;22.94;71.93
76627;BME280;65519;53.230;10.390;2023-08-12T10:04:17;101136.94;;;22.88;69.44
76627;BME280;65519;53.230;10.390;2023-08-12T10:06:44;101141.81;;;22.91;69.62
76627;BME280;65519;53.230;10.390;2023-08-12T10:09:10;101132.88;;;22.86;68.70
76627;BME280;65519;53.230;10.390;2023-08-12T10:11:37;101136.72;;;22.93;68.27
76627;BME280;65519;53.230;10.390;2023-08-12T10:14:04;101138.91;;;22.88;69.19
76627;BME280;65519;53.230;10.390;2023-08-12T10:16:30;101130.56;;;22.88;67.32
76627;BME280;65519;53.230;10.390;2023-08-12T10:18:57;101135.50;;;22.82;64.87
76627;BME280;65519;53.230;10.390;2023-08-12T10:21:23;101133.91;;;22.81;66.30
76627;BME280;65519;53.230;10.390;2023-08-12T10:23:50;101131.94;;;22.82;68.11
76627;BME280;65519;53.230;10.390;2023-08-12T10:26:17;101122.94;;;22.97;70.58
76627;BME280;65519;53.230;10.390;2023-08-12T10:28:43;101118.44;;;23.05;72.79
76627;BME280;65519;53.230;10.390;2023-08-12T10:31:11;101128.34;;;23.14;71.06
76627;BME280;65519;53.230;10.390;2023-08-12T10:33:37;101124.81;;;23.05;69.77
76627;BME280;65519;53.230;10.390;2023-08-12T10:36:04;101133.63;;;23.07;70.33
76627;BME280;65519;53.230;10.390;2023-08-12T10:38:32;101124.31;;;22.91;70.09
76627;BME280;65519;53.230;10.390;2023-08-12T10:41:18;101119.63;;;22.83;70.58
76627;BME280;65519;53.230;10.390;2023-08-12T10:43:59;101126.75;;;22.72;71.39
76627;BME280;65519;53.230;10.390;2023-08-12T10:46:34;101122.41;;;22.62;71.83
76627;BME280;65519;53.230;10.390;2023-08-12T10:54:28;101123.91;;;22.60;73.02
76627;BME280;65519;53.230;10.390;2023-08-12T11:02:32;101118.38;;;22.80;69.98
76627;BME280;65519;53.230;10.390;2023-08-12T11:05:10;101105.31;;;22.72;70.11
76627;BME280;65519;53.230;10.390;2023-08-12T11:07:41;101106.91;;;22.82;70.67
76627;BME280;65519;53.230;10.390;2023-08-12T11:13:01;101090.88;;;23.00;69.87
76627;BME280;65519;53.230;10.390;2023-08-12T11:15:47;101087.03;;;23.04;69.78
76627;BME280;65519;53.230;10.390;2023-08-12T11:18:18;101085.78;;;23.02;70.79
76627;BME280;65519;53.230;10.390;2023-08-12T11:20:44;101089.91;;;22.96;70.66
76627;BME280;65519;53.230;10.390;2023-08-12T11:23:10;101084.25;;;22.92;70.13
76627;BME280;65519;53.230;10.390;2023-08-12T11:25:39;101076.88;;;22.75;69.86
76627;BME280;65519;53.230;10.390;2023-08-12T11:28:05;101076.69;;;22.80;70.33
76627;BME280;65519;53.230;10.390;2023-08-12T11:30:31;101077.75;;;22.88;70.26
76627;BME280;65519;53.230;10.390;2023-08-12T11:32:58;101078.69;;;22.92;70.61
76627;BME280;65519;53.230;10.390;2023-08-12T11:35:24;101077.31;;;22.98;71.08
76627;BME280;65519;53.230;10.390;2023-08-12T11:37:51;101079.41;;;23.01;69.79
76627;BME280;65519;53.230;10.390;2023-08-12T11:40:23;101074.53;;;22.98;69.97
76627;BME280;65519;53.230;10.390;2023-08-12T11:42:50;101071.75;;;22.98;70.17
76627;BME280;65519;53.230;10.390;2023-08-12T11:45:21;101077.44;;;23.02;69.99
76627;BME280;65519;53.230;10.390;2023-08-12T11:47:47;101069.31;;;22.97;70.36
76627;BME280;65519;53.230;10.390;2023-08-12T11:50:23;101075.63;;;22.85;70.33
76627;BME280;65519;53.230;10.390;2023-08-12T11:52:49;101066.06;;;22.94;70.68
76627;BME280;65519;53.230;10.390;2023-08-12T11:55:15;101065.72;;;22.96;70.23
76627;BME280;65519;53.230;10.390;2023-08-12T11:57:41;101069.88;;;22.90;69.10
76627;BME280;65519;53.230;10.390;2023-08-12T12:00:09;101063.97;;;22.91;69.44
76627;BME280;65519;53.230;10.390;2023-08-12T12:02:41;101065.22;;;22.94;69.38
76627;BME280;65519;53.230;10.390;2023-08-12T12:05:10;101060.16;;;22.96;68.96
76627;BME280;65519;53.230;10.390;2023-08-12T12:07:36;101064.94;;;23.08;68.82
76627;BME280;65519;53.230;10.390;2023-08-12T12:10:02;101057.19;;;23.13;68.98
76627;BME280;65519;53.230;10.390;2023-08-12T12:12:28;101053.03;;;23.19;68.78
76627;BME280;65519;53.230;10.390;2023-08-12T12:14:55;101043.28;;;23.25;68.94
76627;BME280;65519;53.230;10.390;2023-08-12T12:17:23;101040.28;;;23.30;69.11
76627;BME280;65519;53.230;10.390;2023-08-12T12:19:59;101032.97;;;23.26;68.66
76627;BME280;65519;53.230;10.390;2023-08-12T12:22:31;101024.88;;;23.33;68.01
76627;BME280;65519;53.230;10.390;2023-08-12T12:25:09;101020.94;;;23.46;68.20
76627;BME280;65519;53.230;10.390;2023-08-12T12:27:37;101022.19;;;23.49;68.41
76627;BME280;65519;53.230;10.390;2023-08-12T12:30:03;101017.59;;;23.65;68.86
76627;BME280;65519;53.230;10.390;2023-08-12T12:32:29;101012.50;;;23.79;66.93
76627;BME280;65519;53.230;10.390;2023-08-12T12:34:54;101014.31;;;23.99;66.10
76627;BME280;65519;53.230;10.390;2023-08-12T12:37:20;101017.09;;;23.87;66.88
76627;BME280;65519;53.230;10.390;2023-08-12T12:39:46;101015.66;;;24.06;65.15
76627;BME280;65519;53.230;10.390;2023-08-12T12:42:12;101023.22;;;23.93;65.44
76627;BME280;65519;53.230;10.390;2023-08-12T12:44:37;101020.34;;;23.89;66.39
76627;BME280;65519;53.230;10.390;2023-08-12T12:47:03;101008.28;;;23.85;66.52
76627;BME280;65519;53.230;10.390;2023-08-12T12:49:29;101010.88;;;23.78;67.98
76627;BME280;65519;53.230;10.390;2023-08-12T12:51:55;101006.81;;;23.76;67.88
76627;BME280;65519;53.230;10.390;2023-08-12T12:54:20;101003.81;;;23.69;68.15
76627;BME280;65519;53.230;10.390;2023-08-12T12:56:46;101008.91;;;23.67;67.61
76627;BME280;65519;53.230;10.390;2023-08-12T12:59:11;101004.16;;;23.67;67.44